Time;durP1;ratioP1;P1;durP2;ratioP2;P2;SDS_P1;SDS_P2;PMS_P1;PMS_P2;Temp;Humidity;BMP_temperature;BMP_pressure;BME280_temperature;BME280_humidity;BME280_pressure;Samples;Min_cycle;Max_cycle;Signal;HPM_P1;HPM_P2
2023/12/17 05:00:10;;;;;;;5.00;4.60;;;10.00;99.90;;;;;;5891580;23;20209;31
2023/12/17 05:02:38;;;;;;;7.70;4.57;;;10.00;99.90;;;;;;4889622;29;20478;-72
2023/12/17 05:05:05;;;;;;;4.35;3.92;;;10.00;99.90;;;;;;4893679;29;20233;-72
2023/12/17 05:07:32;;;;;;;5.22;4.75;;;10.00;99.90;;;;;;4899263;29;20241;-71
2023/12/17 05:09:59;;;;;;;7.07;4.85;;;10.00;99.90;;;;;;4901842;29;20209;-71
2023/12/17 05:12:26;;;;;;;5.55;5.05;;;10.00;99.90;;;;;;4891591;29;20317;-71
2023/12/17 05:14:52;;;;;;;6.72;5.53;;;10.00;99.90;;;;;;4892960;29;21159;-71
2023/12/17 05:17:19;;;;;;;4.93;4.43;;;10.00;99.90;;;;;;4894406;29;20293;-71
2023/12/17 05:19:47;;;;;;;9.35;5.00;;;10.00;99.90;;;;;;4894534;29;20218;-71
2023/12/17 05:22:14;;;;;;;5.22;4.65;;;10.00;99.90;;;;;;4895830;29;20261;-72
2023/12/17 05:24:41;;;;;;;4.82;4.40;;;10.00;99.90;;;;;;4893409;29;20226;-72
2023/12/17 05:27:07;;;;;;;6.10;4.80;;;10.00;99.90;;;;;;4894140;29;20242;-72
2023/12/17 05:29:34;;;;;;;5.28;4.78;;;10.00;99.90;;;;;;4894992;29;20218;-72
2023/12/17 05:32:01;;;;;;;5.70;4.93;;;10.00;99.90;;;;;;4896179;29;20612;-72
2023/12/17 05:34:28;;;;;;;6.03;4.57;;;10.00;99.90;;;;;;4895354;29;20308;-72
2023/12/17 05:36:56;;;;;;;9.85;4.15;;;10.00;99.90;;;;;;4893285;29;20221;-72
2023/12/17 05:39:22;;;;;;;4.93;4.57;;;10.00;99.90;;;;;;4898611;29;20221;-72
2023/12/17 05:41:49;;;;;;;4.63;4.22;;;10.00;99.90;;;;;;4897541;29;20230;-72
2023/12/17 05:44:16;;;;;;;4.97;4.60;;;10.00;99.90;;;;;;4898585;29;20214;-72
2023/12/17 05:46:44;;;;;;;4.03;3.72;;;10.00;99.90;;;;;;4892890;29;20236;-72
2023/12/17 05:49:10;;;;;;;4.18;3.88;;;10.00;99.90;;;;;;4899026;29;20249;-72
2023/12/17 05:51:37;;;;;;;6.10;5.30;;;10.00;99.90;;;;;;4898290;29;20237;-72
2023/12/17 05:54:07;;;;;;;8.90;5.05;;;10.00;99.90;;;;;;4889661;29;20698;-72
2023/12/17 05:56:39;;;;;;;5.20;4.80;;;10.00;99.90;;;;;;4892887;29;20661;-72
2023/12/17 05:59:06;;;;;;;5.22;4.82;;;10.00;99.90;;;;;;4898304;29;20210;-72
2023/12/17 06:01:32;;;;;;;4.80;4.20;;;10.00;99.90;;;;;;4896153;29;20238;-72
2023/12/17 06:03:59;;;;;;;8.48;4.35;;;9.90;99.90;;;;;;4897954;29;20230;-72
2023/12/17 06:06:26;;;;;;;5.03;4.45;;;10.00;99.90;;;;;;4897129;29;20226;-72
2023/12/17 06:08:53;;;;;;;5.93;4.70;;;10.00;99.90;;;;;;4897895;29;20224;-73
2023/12/17 06:11:21;;;;;;;5.13;4.70;;;10.00;99.90;;;;;;4897906;29;20230;-72
2023/12/17 06:13:48;;;;;;;7.00;4.60;;;10.00;99.90;;;;;;4898046;29;20217;-72
2023/12/17 06:16:14;;;;;;;7.90;4.25;;;10.00;99.90;;;;;;4896316;29;20670;-72
2023/12/17 06:18:42;;;;;;;5.30;4.00;;;10.00;99.90;;;;;;4892119;29;20242;-72
2023/12/17 06:21:09;;;;;;;4.22;3.80;;;10.00;99.90;;;;;;4896627;29;20238;-72
2023/12/17 06:23:36;;;;;;;10.52;7.05;;;10.00;99.90;;;;;;4897741;29;20591;-72
2023/12/17 06:26:04;;;;;;;6.80;4.93;;;10.00;99.90;;;;;;4895527;29;20232;-72
2023/12/17 06:28:32;;;;;;;4.32;4.07;;;10.00;99.90;;;;;;4889298;29;20341;-71
2023/12/17 06:30:59;;;;;;;5.70;5.25;;;10.00;99.90;;;;;;4895862;29;20240;-71
2023/12/17 06:33:25;;;;;;;4.82;4.43;;;10.00;99.90;;;;;;4897737;29;20238;-71
2023/12/17 06:35:52;;;;;;;4.65;4.20;;;10.00;99.90;;;;;;4896999;29;20221;-71
2023/12/17 06:38:19;;;;;;;5.00;4.70;;;10.00;99.90;;;;;;4894268;29;20213;-72
2023/12/17 06:40:45;;;;;;;4.82;4.45;;;10.00;99.90;;;;;;4890265;29;20229;-72
2023/12/17 06:43:12;;;;;;;6.30;5.35;;;10.00;99.90;;;;;;4894577;29;20217;-72
2023/12/17 06:45:41;;;;;;;6.85;4.90;;;10.00;99.90;;;;;;4895704;29;20235;-71
2023/12/17 06:48:08;;;;;;;5.10;4.60;;;10.00;99.90;;;;;;4896821;29;20225;-72
2023/12/17 06:50:34;;;;;;;5.78;5.28;;;10.10;99.90;;;;;;4894996;29;20237;-72
2023/12/17 06:53:01;;;;;;;4.82;4.47;;;10.10;99.90;;;;;;4896668;29;20215;-72
2023/12/17 06:55:28;;;;;;;4.30;3.90;;;10.10;99.90;;;;;;4893669;29;21966;-72
2023/12/17 06:57:54;;;;;;;4.32;4.03;;;10.00;99.90;;;;;;4892021;29;20215;-72
2023/12/17 07:00:21;;;;;;;5.70;5.13;;;10.00;99.90;;;;;;4889850;29;20214;-72
2023/12/17 07:02:49;;;;;;;9.77;7.05;;;10.00;99.90;;;;;;4895357;29;20218;-71
2023/12/17 07:05:16;;;;;;;5.50;5.00;;;10.10;99.90;;;;;;4895548;29;20214;-71
2023/12/17 07:07:44;;;;;;;5.32;4.65;;;10.00;99.90;;;;;;4895480;29;20330;-71
2023/12/17 07:10:12;;;;;;;5.35;4.88;;;10.10;99.90;;;;;;4892067;29;20237;-71
2023/12/17 07:12:39;;;;;;;9.15;5.35;;;10.10;99.90;;;;;;4891970;29;20214;-72
2023/12/17 07:15:07;;;;;;;9.43;5.22;;;10.10;99.90;;;;;;4895663;29;20213;-71
2023/12/17 07:17:33;;;;;;;6.07;5.50;;;10.10;99.90;;;;;;4894816;29;20215;-71
2023/12/17 07:20:02;;;;;;;5.95;5.35;;;10.10;99.90;;;;;;4890057;29;20209;-71
2023/12/17 07:22:29;;;;;;;5.78;4.68;;;10.10;99.90;;;;;;4890949;29;20322;-71
2023/12/17 07:24:56;;;;;;;5.80;5.20;;;10.00;99.90;;;;;;4895597;29;20215;-72
2023/12/17 07:27:23;;;;;;;5.55;4.80;;;10.10;99.90;;;;;;4894472;29;20230;-72
2023/12/17 07:29:49;;;;;;;4.75;4.32;;;10.10;99.90;;;;;;4896052;29;20691;-72
2023/12/17 07:32:16;;;;;;;4.07;3.78;;;10.10;99.90;;;;;;4896932;29;20231;-71
2023/12/17 07:34:43;;;;;;;8.63;4.30;;;10.10;99.90;;;;;;4895602;29;20591;-71
2023/12/17 07:37:11;;;;;;;6.03;4.90;;;10.10;99.90;;;;;;4893624;29;20218;-72
2023/12/17 07:39:38;;;;;;;6.72;4.60;;;10.10;99.90;;;;;;4896032;29;20225;-72
2023/12/17 07:42:05;;;;;;;6.95;5.20;;;10.10;99.90;;;;;;4895077;29;20242;-71
2023/12/17 07:44:31;;;;;;;5.80;5.05;;;10.10;99.90;;;;;;4894829;29;20588;-71
2023/12/17 07:46:58;;;;;;;3.97;3.67;;;10.10;99.90;;;;;;4893585;29;20233;-71
2023/12/17 07:49:25;;;;;;;6.03;4.97;;;10.10;99.90;;;;;;4895345;29;20212;-71
2023/12/17 07:51:52;;;;;;;9.48;5.07;;;10.10;99.90;;;;;;4895335;29;20244;-71
2023/12/17 07:54:20;;;;;;;9.82;4.55;;;10.10;99.90;;;;;;4893709;29;20243;-71
2023/12/17 07:56:47;;;;;;;4.20;3.80;;;10.10;99.90;;;;;;4891020;29;20241;-71
2023/12/17 07:59:13;;;;;;;7.53;4.10;;;10.10;99.90;;;;;;4892901;29;20558;-71
2023/12/17 08:01:40;;;;;;;6.40;5.28;;;10.10;99.90;;;;;;4893673;29;20356;-72
2023/12/17 08:04:09;;;;;;;6.10;4.63;;;10.10;99.90;;;;;;4895657;29;20214;-72
2023/12/17 08:06:36;;;;;;;6.70;5.40;;;10.10;99.90;;;;;;4890894;29;20237;-72
2023/12/17 08:09:02;;;;;;;6.10;5.60;;;10.20;99.90;;;;;;4895630;29;20225;-72
2023/12/17 08:11:30;;;;;;;4.97;4.57;;;10.20;99.90;;;;;;4895619;29;20233;-71
2023/12/17 08:13:57;;;;;;;4.75;4.25;;;10.20;99.90;;;;;;4896089;29;20254;-71
2023/12/17 08:16:24;;;;;;;7.13;3.75;;;10.20;99.90;;;;;;4894396;29;20212;-71
2023/12/17 08:18:50;;;;;;;8.02;4.28;;;10.20;99.90;;;;;;4893241;29;20222;-71
2023/12/17 08:21:17;;;;;;;4.88;4.40;;;10.20;99.90;;;;;;4893330;29;20226;-70
2023/12/17 08:23:44;;;;;;;7.45;6.13;;;10.20;99.90;;;;;;4894742;29;20218;-70
2023/12/17 08:26:11;;;;;;;7.03;6.32;;;10.20;99.90;;;;;;4894036;29;20225;-70
2023/12/17 08:28:39;;;;;;;5.22;4.72;;;10.20;99.90;;;;;;4895157;29;20226;-71
2023/12/17 08:31:09;;;;;;;6.38;5.78;;;10.20;99.90;;;;;;4894083;29;20231;-71
2023/12/17 08:33:36;;;;;;;5.88;5.25;;;10.30;99.90;;;;;;4892672;29;20704;-72
2023/12/17 08:36:03;;;;;;;10.18;4.60;;;10.30;99.90;;;;;;4889411;29;21176;-71
2023/12/17 08:38:29;;;;;;;8.77;5.03;;;10.30;99.90;;;;;;4887557;29;20226;-71
2023/12/17 08:40:56;;;;;;;5.68;5.05;;;10.30;99.90;;;;;;4888930;29;20250;-71
2023/12/17 08:43:23;;;;;;;5.90;5.30;;;10.30;99.90;;;;;;4893018;29;20222;-71
2023/12/17 08:45:51;;;;;;;9.57;6.03;;;10.30;99.90;;;;;;4894366;29;20223;-71
2023/12/17 08:48:18;;;;;;;6.15;5.45;;;10.30;99.90;;;;;;4891472;29;20210;-71
2023/12/17 08:50:45;;;;;;;8.57;5.35;;;10.30;99.90;;;;;;4894178;29;20279;-72
2023/12/17 08:53:11;;;;;;;5.18;4.85;;;10.40;99.90;;;;;;4895753;29;20213;-72
2023/12/17 08:55:38;;;;;;;6.13;5.60;;;10.40;99.90;;;;;;4889733;29;20226;-72
2023/12/17 08:58:05;;;;;;;10.32;5.95;;;10.40;99.90;;;;;;4889811;29;20210;-72
2023/12/17 09:00:32;;;;;;;7.50;5.63;;;10.40;99.90;;;;;;4892865;29;20614;-72
2023/12/17 09:03:00;;;;;;;10.63;5.55;;;10.40;99.90;;;;;;4892582;29;20221;-71
2023/12/17 09:05:26;;;;;;;8.70;6.95;;;10.40;99.90;;;;;;4893418;29;20221;-72
2023/12/17 09:07:53;;;;;;;7.53;5.65;;;10.40;99.90;;;;;;4894129;29;20651;-72
2023/12/17 09:10:23;;;;;;;6.20;5.40;;;10.50;99.90;;;;;;4897846;29;20213;-71
2023/12/17 09:12:50;;;;;;;6.05;5.35;;;10.50;99.90;;;;;;4897269;29;20214;-72
2023/12/17 09:15:17;;;;;;;6.45;5.85;;;10.50;99.90;;;;;;4896695;29;20210;-71
2023/12/17 09:17:44;;;;;;;11.98;5.95;;;10.50;99.90;;;;;;4894440;29;20213;-71
2023/12/17 09:20:13;;;;;;;6.63;6.03;;;10.50;99.90;;;;;;4894348;29;20233;-72
2023/12/17 09:22:40;;;;;;;5.57;5.10;;;10.50;99.90;;;;;;4897873;29;20596;-71
2023/12/17 09:25:08;;;;;;;7.70;5.60;;;10.60;99.90;;;;;;4898981;29;20702;-72
2023/12/17 09:27:34;;;;;;;5.03;4.55;;;10.60;99.90;;;;;;4898281;29;20253;-72
2023/12/17 09:30:01;;;;;;;6.15;5.55;;;10.60;99.90;;;;;;4895681;29;20233;-73
2023/12/17 09:32:28;;;;;;;5.28;4.78;;;10.60;99.90;;;;;;4895820;29;20235;-73
2023/12/17 09:34:54;;;;;;;6.22;5.63;;;10.60;99.90;;;;;;4893517;29;20214;-72
2023/12/17 09:37:22;;;;;;;8.48;5.88;;;10.70;99.90;;;;;;4893887;29;20207;-72
2023/12/17 09:39:49;;;;;;;6.97;6.07;;;10.70;99.90;;;;;;4894077;29;20218;-72
2023/12/17 09:42:19;;;;;;;7.50;5.85;;;10.70;99.90;;;;;;4896298;29;20238;-73
2023/12/17 09:44:46;;;;;;;8.65;5.55;;;10.60;99.90;;;;;;4895797;29;20251;-72
2023/12/17 09:47:13;;;;;;;5.75;4.60;;;10.70;99.90;;;;;;4896128;29;20253;-73
2023/12/17 09:49:40;;;;;;;6.68;5.07;;;10.70;99.90;;;;;;4892006;29;20215;-73
2023/12/17 09:52:08;;;;;;;6.00;4.78;;;10.60;99.90;;;;;;4897983;29;20720;-73
2023/12/17 09:54:36;;;;;;;5.63;4.93;;;10.70;99.90;;;;;;4897567;29;20263;-73
2023/12/17 09:57:05;;;;;;;6.03;5.32;;;10.70;99.90;;;;;;4899140;29;20282;-73
2023/12/17 09:59:32;;;;;;;7.65;5.40;;;10.60;99.90;;;;;;4894848;29;20245;-73
2023/12/17 10:01:58;;;;;;;5.55;4.63;;;10.70;99.90;;;;;;4895432;29;20624;-73
2023/12/17 10:04:26;;;;;;;5.65;5.07;;;10.70;99.90;;;;;;4896704;29;20210;-73
2023/12/17 10:06:53;;;;;;;5.88;5.30;;;10.60;99.90;;;;;;4895761;29;20554;-73
2023/12/17 10:09:20;;;;;;;5.15;4.65;;;10.70;99.90;;;;;;4897186;29;20666;-73
2023/12/17 10:11:48;;;;;;;5.70;5.20;;;10.70;99.90;;;;;;4897084;29;20256;-73
2023/12/17 10:14:22;;;;;;;5.30;4.80;;;10.70;99.90;;;;;;4894933;29;20222;-73
2023/12/17 10:16:50;;;;;;;4.70;4.18;;;10.70;99.90;;;;;;4891779;29;20263;-72
2023/12/17 10:19:16;;;;;;;4.72;3.95;;;10.70;99.90;;;;;;4888365;29;20216;-73
2023/12/17 10:21:43;;;;;;;4.47;4.07;;;10.70;99.90;;;;;;4888456;29;20223;-72
2023/12/17 10:24:10;;;;;;;5.10;4.60;;;10.60;99.90;;;;;;4891526;29;20215;-72
2023/12/17 10:26:43;;;;;;;7.00;5.60;;;10.60;99.90;;;;;;4894235;29;20218;-72
2023/12/17 10:29:14;;;;;;;5.47;4.45;;;10.60;99.90;;;;;;4893271;29;20229;-73
2023/12/17 10:31:42;;;;;;;6.10;5.50;;;10.60;99.90;;;;;;4891154;29;20385;-72
2023/12/17 10:34:15;;;;;;;6.55;4.28;;;10.70;99.90;;;;;;4892643;29;20267;-73
2023/12/17 10:36:42;;;;;;;3.97;3.78;;;10.70;99.90;;;;;;4893597;29;20222;-73
2023/12/17 10:39:10;;;;;;;5.65;4.10;;;10.60;99.90;;;;;;4892005;29;20301;-74
2023/12/17 10:41:39;;;;;;;4.93;4.40;;;10.60;99.90;;;;;;4892017;29;20694;-74
2023/12/17 10:44:07;;;;;;;4.50;4.13;;;10.70;99.90;;;;;;4896410;29;20207;-74
2023/12/17 10:46:35;;;;;;;7.18;6.00;;;10.70;99.90;;;;;;4891621;29;20234;-74
2023/12/17 10:49:03;;;;;;;3.90;3.70;;;10.70;99.90;;;;;;4895024;29;20218;-74
2023/12/17 10:51:32;;;;;;;4.90;4.45;;;10.70;99.90;;;;;;4892284;29;20234;-74
2023/12/17 10:53:58;;;;;;;7.20;5.80;;;10.70;99.90;;;;;;4892455;29;20300;-74
2023/12/17 10:56:26;;;;;;;4.85;4.45;;;10.80;99.90;;;;;;4896730;29;20691;-74
2023/12/17 10:58:54;;;;;;;4.72;3.85;;;10.80;99.90;;;;;;4896493;29;20217;-74
2023/12/17 11:01:22;;;;;;;4.60;3.90;;;10.80;99.90;;;;;;4892651;29;20239;-74
2023/12/17 11:03:50;;;;;;;4.93;4.03;;;10.80;99.90;;;;;;4893473;29;20260;-75
2023/12/17 11:06:17;;;;;;;5.55;4.65;;;10.80;99.90;;;;;;4895961;29;20216;-74
2023/12/17 11:08:44;;;;;;;6.07;4.60;;;10.80;99.90;;;;;;4890800;29;20643;-73
2023/12/17 11:11:11;;;;;;;5.57;4.28;;;10.80;99.90;;;;;;4888017;29;20234;-74
2023/12/17 11:13:38;;;;;;;4.53;4.13;;;10.90;99.90;;;;;;4891181;29;20218;-74
2023/12/17 11:16:24;;;;;;;4.00;3.50;;;10.90;99.90;;;;;;4891291;29;20214;-74
2023/12/17 11:18:53;;;;;;;4.87;3.90;;;10.90;99.90;;;;;;4894860;29;20298;-74
2023/12/17 11:21:20;;;;;;;4.65;4.00;;;10.90;99.90;;;;;;4890634;29;21052;-74
2023/12/17 11:23:47;;;;;;;4.27;3.87;;;10.90;99.90;;;;;;4892419;29;20211;-74
2023/12/17 11:26:15;;;;;;;4.82;4.15;;;10.90;99.90;;;;;;4892394;29;20484;-74
2023/12/17 11:28:44;;;;;;;4.00;3.70;;;10.90;99.90;;;;;;4892248;29;20241;-74
2023/12/17 11:31:11;;;;;;;6.20;4.43;;;10.90;99.90;;;;;;4890826;29;20231;-74
2023/12/17 11:33:38;;;;;;;4.97;4.43;;;11.00;99.90;;;;;;4891521;29;20301;-73
2023/12/17 11:36:08;;;;;;;5.57;4.70;;;11.00;99.90;;;;;;4892150;29;20214;-74
2023/12/17 11:38:36;;;;;;;4.25;3.90;;;11.00;99.90;;;;;;4891231;29;20222;-73
2023/12/17 11:41:03;;;;;;;5.10;4.25;;;11.00;99.90;;;;;;4888417;29;20255;-73
2023/12/17 11:43:30;;;;;;;7.30;3.87;;;11.00;99.90;;;;;;4894324;29;20237;-74
2023/12/17 11:45:57;;;;;;;4.72;4.20;;;11.00;99.90;;;;;;4891913;29;20491;-74
2023/12/17 11:48:25;;;;;;;5.10;4.03;;;11.00;99.90;;;;;;4894778;29;20220;-74
2023/12/17 11:50:54;;;;;;;5.50;4.50;;;11.00;99.90;;;;;;4895424;29;20598;-73
2023/12/17 11:53:23;;;;;;;3.33;3.13;;;11.00;99.90;;;;;;4894603;29;20276;-73
2023/12/17 11:55:51;;;;;;;4.05;3.65;;;11.00;99.90;;;;;;4887505;29;20211;-74
2023/12/17 11:58:19;;;;;;;6.40;4.68;;;11.00;99.90;;;;;;4891662;29;20666;-74
2023/12/17 12:01:08;;;;;;;4.82;4.32;;;11.00;99.90;;;;;;4888311;29;20239;-73
2023/12/17 12:03:36;;;;;;;8.20;4.50;;;10.90;99.90;;;;;;4889967;29;20203;-74
2023/12/17 12:06:06;;;;;;;5.22;3.85;;;10.90;99.90;;;;;;4888408;29;20581;-74
2023/12/17 12:08:35;;;;;;;5.13;4.63;;;10.90;99.90;;;;;;4889728;29;20234;-74
2023/12/17 12:11:03;;;;;;;5.95;4.22;;;10.90;99.90;;;;;;4886684;29;20231;-74
2023/12/17 12:13:31;;;;;;;4.65;3.75;;;10.90;99.90;;;;;;4891137;29;20651;-73
2023/12/17 12:15:59;;;;;;;5.50;5.00;;;10.90;99.90;;;;;;4892099;29;20207;-73
2023/12/17 12:18:26;;;;;;;7.07;4.15;;;11.00;99.90;;;;;;4885144;29;20281;-73
2023/12/17 12:20:54;;;;;;;4.93;3.42;;;10.90;99.90;;;;;;4888615;29;20603;-73
2023/12/17 12:23:21;;;;;;;5.80;4.05;;;10.90;99.90;;;;;;4888632;29;20208;-74
2023/12/17 12:25:49;;;;;;;7.65;4.38;;;10.90;99.90;;;;;;4885706;29;20215;-73
2023/12/17 12:28:17;;;;;;;6.35;4.68;;;10.90;99.90;;;;;;4885755;29;20238;-73
2023/12/17 12:30:44;;;;;;;5.95;4.10;;;10.80;99.90;;;;;;4887356;29;20330;-73
2023/12/17 12:33:11;;;;;;;7.53;4.80;;;10.80;99.90;;;;;;4888819;29;20210;-73
2023/12/17 12:35:39;;;;;;;7.78;4.90;;;10.80;99.90;;;;;;4887572;29;20323;-73
2023/12/17 12:38:21;;;;;;;4.57;4.18;;;10.70;99.90;;;;;;4886166;29;20226;-73
2023/12/17 12:40:50;;;;;;;6.07;4.70;;;10.70;99.90;;;;;;4887524;29;20231;-73
2023/12/17 12:43:17;;;;;;;6.05;4.55;;;10.70;99.90;;;;;;4886296;29;20237;-73
2023/12/17 12:45:45;;;;;;;8.50;5.95;;;10.60;99.90;;;;;;4891187;29;20294;-73
2023/12/17 12:48:19;;;;;;;7.13;5.80;;;10.60;99.90;;;;;;4895856;29;20236;-73
2023/12/17 12:50:47;;;;;;;8.13;6.10;;;10.60;99.90;;;;;;4894656;29;20240;-73
2023/12/17 12:53:16;;;;;;;6.78;5.45;;;10.60;99.90;;;;;;4889972;29;20223;-74
2023/12/17 12:55:42;;;;;;;10.60;6.65;;;10.60;99.90;;;;;;4892072;29;21005;-74
2023/12/17 12:58:11;;;;;;;11.15;6.13;;;10.60;99.90;;;;;;4893414;29;20218;-74
2023/12/17 13:00:37;;;;;;;6.07;5.55;;;10.70;99.90;;;;;;4892856;29;20610;-74
2023/12/17 13:03:04;;;;;;;6.20;5.60;;;10.60;99.90;;;;;;4894440;29;20221;-73
2023/12/17 13:05:31;;;;;;;6.10;4.95;;;10.60;99.90;;;;;;4889508;29;20214;-73
2023/12/17 13:07:58;;;;;;;8.30;5.57;;;10.60;99.90;;;;;;4894018;29;20237;-73
2023/12/17 13:10:25;;;;;;;9.50;6.20;;;10.60;99.90;;;;;;4887231;29;20301;-73
2023/12/17 13:12:51;;;;;;;7.68;5.60;;;10.60;99.90;;;;;;4894439;29;20332;-73
2023/12/17 13:15:19;;;;;;;7.47;5.88;;;10.50;99.90;;;;;;4892940;29;20237;-73
2023/12/17 13:17:46;;;;;;;8.82;5.50;;;10.50;99.90;;;;;;4889301;29;20207;-73
2023/12/17 13:20:13;;;;;;;7.15;5.85;;;10.40;99.90;;;;;;4890195;29;20650;-73
2023/12/17 13:22:40;;;;;;;8.27;6.28;;;10.40;99.90;;;;;;4886931;29;20218;-73
2023/12/17 13:25:10;;;;;;;7.90;5.47;;;10.30;99.90;;;;;;4885517;29;20673;-72
2023/12/17 13:27:37;;;;;;;7.93;5.93;;;10.30;99.90;;;;;;4891209;29;20216;-73
2023/12/17 13:30:04;;;;;;;9.63;6.25;;;10.30;99.90;;;;;;4890490;29;20221;-73
2023/12/17 13:32:35;;;;;;;7.25;6.18;;;10.30;99.90;;;;;;4887164;29;20322;-73
2023/12/17 13:35:02;;;;;;;7.28;6.53;;;10.30;99.90;;;;;;4886069;29;20223;-73
2023/12/17 13:37:28;;;;;;;11.45;6.90;;;10.20;99.90;;;;;;4886725;29;20241;-72
2023/12/17 13:39:55;;;;;;;7.85;5.78;;;10.20;99.90;;;;;;4887551;29;20214;-72
2023/12/17 13:42:22;;;;;;;8.50;6.28;;;10.20;99.90;;;;;;4887394;29;20662;-73
2023/12/17 13:44:49;;;;;;;13.43;8.13;;;10.20;99.90;;;;;;4885585;29;20214;-72
2023/12/17 13:47:15;;;;;;;7.25;5.95;;;10.10;99.90;;;;;;4889388;29;20222;-72
2023/12/17 13:49:44;;;;;;;5.38;4.50;;;10.10;99.90;;;;;;4891860;29;20231;-72
2023/12/17 13:52:14;;;;;;;9.18;4.90;;;10.10;99.90;;;;;;4894734;29;20600;-72
2023/12/17 13:54:41;;;;;;;5.65;4.32;;;10.00;99.90;;;;;;4897328;29;20650;-72
2023/12/17 13:57:08;;;;;;;6.60;5.55;;;10.00;99.90;;;;;;4893967;29;20779;-72
2023/12/17 13:59:35;;;;;;;7.40;5.97;;;10.00;99.90;;;;;;4892943;29;20297;-72
2023/12/17 14:02:02;;;;;;;8.60;6.30;;;9.90;99.90;;;;;;4895384;29;20243;-71
2023/12/17 14:04:29;;;;;;;6.55;5.95;;;10.00;99.90;;;;;;4893119;29;20310;-72
2023/12/17 14:06:57;;;;;;;5.50;4.43;;;10.00;99.90;;;;;;4893067;29;20226;-75
2023/12/17 14:09:24;;;;;;;7.45;5.35;;;10.00;99.90;;;;;;4894425;29;20237;-73
2023/12/17 14:11:50;;;;;;;7.03;5.10;;;10.00;99.90;;;;;;4896949;29;20237;-72
2023/12/17 14:14:17;;;;;;;11.88;6.32;;;9.90;99.90;;;;;;4895441;29;20218;-73
2023/12/17 14:16:44;;;;;;;6.95;5.55;;;9.90;99.90;;;;;;4897117;29;20573;-72
2023/12/17 14:19:10;;;;;;;8.13;5.25;;;9.90;99.90;;;;;;4896461;29;20217;-72
2023/12/17 14:21:38;;;;;;;9.13;6.30;;;9.80;99.90;;;;;;4893647;29;20242;-72
2023/12/17 14:24:07;;;;;;;6.10;5.50;;;9.80;99.90;;;;;;4894528;29;20214;-72
2023/12/17 14:26:33;;;;;;;8.77;6.40;;;9.80;99.90;;;;;;4893646;29;20711;-72
2023/12/17 14:29:01;;;;;;;6.93;6.13;;;9.70;99.90;;;;;;4892956;29;20226;-72
2023/12/17 14:31:29;;;;;;;13.55;9.27;;;9.70;99.90;;;;;;4895462;29;20543;-73
2023/12/17 14:33:56;;;;;;;14.65;8.13;;;9.70;99.90;;;;;;4896339;29;20625;-72
2023/12/17 14:36:23;;;;;;;13.60;7.82;;;9.60;99.90;;;;;;4895601;29;20205;-72
2023/12/17 14:38:50;;;;;;;7.85;5.75;;;9.60;99.90;;;;;;4891135;29;20235;-72
2023/12/17 14:41:18;;;;;;;12.00;9.95;;;9.60;99.90;;;;;;4896221;29;20702;-72
2023/12/17 14:43:45;;;;;;;8.15;5.70;;;9.50;99.90;;;;;;4894909;29;20223;-72
2023/12/17 14:46:12;;;;;;;7.78;5.53;;;9.50;99.90;;;;;;4896042;29;20220;-72
2023/12/17 14:48:39;;;;;;;7.43;5.93;;;9.50;99.90;;;;;;4893406;29;20296;-73
2023/12/17 14:51:06;;;;;;;7.47;5.25;;;9.40;99.90;;;;;;4890911;29;20241;-73
2023/12/17 14:53:33;;;;;;;9.45;7.43;;;9.50;99.90;;;;;;4890588;29;20214;-73
2023/12/17 14:56:00;;;;;;;15.93;13.57;;;9.40;99.90;;;;;;4893857;29;20203;-73
2023/12/17 14:58:28;;;;;;;10.80;8.63;;;9.40;99.90;;;;;;4895716;29;20204;-73
2023/12/17 15:00:56;;;;;;;13.63;8.85;;;9.30;99.90;;;;;;4893545;29;20241;-73
2023/12/17 15:03:23;;;;;;;16.10;9.85;;;9.30;99.90;;;;;;4887547;29;20748;-73
2023/12/17 15:05:50;;;;;;;8.30;6.50;;;9.30;99.90;;;;;;4888031;29;20217;-73
2023/12/17 15:08:17;;;;;;;8.75;6.53;;;9.30;99.90;;;;;;4891551;29;20233;-73
2023/12/17 15:10:44;;;;;;;10.05;8.02;;;9.20;99.90;;;;;;4892995;29;20252;-73
2023/12/17 15:13:11;;;;;;;8.13;5.63;;;9.20;99.90;;;;;;4888425;29;20213;-72
2023/12/17 15:15:39;;;;;;;9.40;8.32;;;9.20;99.90;;;;;;4889963;29;20260;-72
2023/12/17 15:18:06;;;;;;;11.15;6.97;;;9.20;99.90;;;;;;4893272;29;20212;-72
2023/12/17 15:20:32;;;;;;;9.13;6.75;;;9.10;99.90;;;;;;4893470;29;20227;-73
2023/12/17 15:22:59;;;;;;;10.02;6.25;;;9.10;99.90;;;;;;4892685;29;20224;-73
2023/12/17 15:25:26;;;;;;;5.88;5.32;;;9.10;99.90;;;;;;4894984;29;20248;-73
2023/12/17 15:27:53;;;;;;;6.25;5.50;;;9.10;99.90;;;;;;4892421;29;20216;-73
2023/12/17 15:30:19;;;;;;;12.50;6.47;;;9.10;99.90;;;;;;4894396;29;20248;-73
2023/12/17 15:32:48;;;;;;;7.75;5.80;;;9.00;99.90;;;;;;4892643;29;20256;-73
2023/12/17 15:35:16;;;;;;;9.15;6.03;;;8.90;99.90;;;;;;4888096;29;20205;-71
2023/12/17 15:37:46;;;;;;;9.98;7.70;;;8.90;99.90;;;;;;4886766;29;20226;-72
2023/12/17 15:40:13;;;;;;;8.32;5.93;;;8.90;99.90;;;;;;4893045;29;20211;-71
2023/12/17 15:42:41;;;;;;;9.88;6.50;;;8.90;99.90;;;;;;4895605;29;20214;-72
2023/12/17 15:45:08;;;;;;;9.57;6.32;;;8.80;99.90;;;;;;4893745;29;20211;-72
2023/12/17 15:47:35;;;;;;;10.40;7.72;;;8.80;99.90;;;;;;4893722;29;20340;-72
2023/12/17 15:50:04;;;;;;;11.40;6.93;;;8.80;99.90;;;;;;4891631;29;20283;-71
2023/12/17 15:52:31;;;;;;;7.97;6.68;;;8.80;99.90;;;;;;4891892;29;20239;-72
2023/12/17 15:54:58;;;;;;;8.20;6.85;;;8.80;99.90;;;;;;4889307;29;20222;-72
2023/12/17 15:57:25;;;;;;;10.45;6.72;;;8.80;99.90;;;;;;4892639;29;20207;-72
2023/12/17 15:59:52;;;;;;;8.73;5.95;;;8.70;99.90;;;;;;4894060;29;20310;-73
2023/12/17 16:02:19;;;;;;;6.25;5.65;;;8.70;99.90;;;;;;4888445;29;20235;-73
2023/12/17 16:04:46;;;;;;;6.40;4.70;;;8.70;99.90;;;;;;4891717;29;20214;-72
2023/12/17 16:07:14;;;;;;;8.60;5.28;;;8.70;99.90;;;;;;4892512;29;20208;-74
2023/12/17 16:09:41;;;;;;;9.93;6.85;;;8.70;99.90;;;;;;4893069;29;20256;-73
2023/12/17 16:12:08;;;;;;;13.15;7.78;;;8.70;99.90;;;;;;4894869;29;20242;-72
2023/12/17 16:14:35;;;;;;;13.75;8.43;;;8.70;99.90;;;;;;4892071;29;20230;-73
2023/12/17 16:17:03;;;;;;;8.60;5.97;;;8.70;99.90;;;;;;4886137;29;20236;-72
2023/12/17 16:19:30;;;;;;;9.60;6.05;;;8.70;99.90;;;;;;4892664;29;20206;-72
2023/12/17 16:21:58;;;;;;;10.38;7.43;;;8.70;99.90;;;;;;4891686;29;20237;-73
2023/12/17 16:24:26;;;;;;;8.07;5.80;;;8.60;99.90;;;;;;4894203;29;20601;-73
2023/12/17 16:26:52;;;;;;;12.15;7.40;;;8.60;99.90;;;;;;4891335;29;20207;-74
2023/12/17 16:29:19;;;;;;;8.48;6.20;;;8.60;99.90;;;;;;4893468;29;20698;-73
2023/12/17 16:31:46;;;;;;;9.85;6.03;;;8.60;99.90;;;;;;4892986;29;20303;-72
2023/12/17 16:34:13;;;;;;;8.50;5.53;;;8.60;99.90;;;;;;4892051;29;20606;-73
2023/12/17 16:36:41;;;;;;;13.15;6.88;;;8.60;99.90;;;;;;4888365;29;20207;-73
2023/12/17 16:39:08;;;;;;;13.00;6.60;;;8.50;99.90;;;;;;4893137;29;20207;-73
2023/12/17 16:41:37;;;;;;;7.68;6.00;;;8.50;99.90;;;;;;4892519;29;20244;-73
2023/12/17 16:44:04;;;;;;;10.50;6.93;;;8.50;99.90;;;;;;4893320;29;20639;-73
2023/12/17 16:46:32;;;;;;;11.93;8.77;;;8.50;99.90;;;;;;4889768;29;20222;-74
2023/12/17 16:48:59;;;;;;;15.00;8.10;;;8.50;99.90;;;;;;4892441;29;20235;-73
2023/12/17 16:51:26;;;;;;;13.15;7.38;;;8.50;99.90;;;;;;4890158;29;20270;-73
2023/12/17 16:53:53;;;;;;;7.57;6.28;;;8.50;99.90;;;;;;4892115;29;20207;-74
2023/12/17 16:56:22;;;;;;;10.38;6.20;;;8.50;99.90;;;;;;4893215;29;20214;-72
2023/12/17 16:58:50;;;;;;;10.02;7.30;;;8.60;99.90;;;;;;4891958;29;20242;-72
2023/12/17 17:01:18;;;;;;;6.82;5.35;;;8.60;99.90;;;;;;4893485;29;20656;-72
2023/12/17 17:03:45;;;;;;;5.95;4.55;;;8.60;99.90;;;;;;4892771;29;20234;-72
2023/12/17 17:06:12;;;;;;;7.57;5.55;;;8.60;99.90;;;;;;4890250;29;20203;-71
2023/12/17 17:08:39;;;;;;;8.75;5.85;;;8.60;99.90;;;;;;4889329;29;20216;-71
2023/12/17 17:11:06;;;;;;;9.82;7.05;;;8.50;99.90;;;;;;4892217;29;20242;-71
2023/12/17 17:13:33;;;;;;;9.68;6.63;;;8.50;99.90;;;;;;4894183;29;20215;-71
2023/12/17 17:16:01;;;;;;;12.40;7.50;;;8.40;99.90;;;;;;4888741;29;20215;-71
2023/12/17 17:18:29;;;;;;;10.65;7.28;;;8.40;99.90;;;;;;4893412;29;20218;-71
2023/12/17 17:20:56;;;;;;;12.57;7.80;;;8.40;99.90;;;;;;4892035;29;20494;-72
2023/12/17 17:23:23;;;;;;;9.68;6.20;;;8.30;99.90;;;;;;4892785;29;20203;-71
2023/12/17 17:25:50;;;;;;;11.80;8.32;;;8.30;99.90;;;;;;4890710;29;20299;-71
2023/12/17 17:28:17;;;;;;;10.43;7.80;;;8.30;99.90;;;;;;4892466;29;20294;-71
2023/12/17 17:30:45;;;;;;;10.82;7.32;;;8.30;99.90;;;;;;4895279;29;20322;-71
2023/12/17 17:33:13;;;;;;;11.15;7.40;;;8.30;99.90;;;;;;4894262;29;20581;-73
2023/12/17 17:35:39;;;;;;;15.13;7.22;;;8.30;99.90;;;;;;4894413;29;20581;-73
2023/12/17 17:38:06;;;;;;;12.07;9.45;;;8.30;99.90;;;;;;4896669;29;20222;-73
2023/12/17 17:40:33;;;;;;;10.85;6.22;;;8.30;99.90;;;;;;4896386;29;20207;-76
2023/12/17 17:43:01;;;;;;;9.07;7.20;;;8.20;99.90;;;;;;4894634;29;20215;-72
2023/12/17 17:45:27;;;;;;;11.05;6.47;;;8.20;99.90;;;;;;4893164;29;20256;-72
2023/12/17 17:47:54;;;;;;;12.98;7.80;;;8.20;99.90;;;;;;4896866;29;20211;-72